Terminal Aerodrome Forecast
Issued by NWS

Home | Current Version | Previous Version | Text Only | Print | Product List | Glossary Off
Versions: 1 2 3 4 5 6 7 8 9 10 11 12 13 14 15 16 17 18 19 20 21

300
FTUS43 KBIS 270524
TAFDIK
TAF
KDIK 270524Z 2706/2806 08005KT P6SM SKC
     FM270900 07005KT 5SM BR SKC
     FM271200 06006KT 3/4SM BR BKN005
     FM271400 07006KT 2SM BR SCT005
     FM271500 08007KT P6SM SCT015 BKN100
     FM272100 10008KT P6SM VCTS BKN050 BKN100CB=

USA.gov is the U.S. government's official web portal to all federal, state and local government web resources and services.